Track City, Colorado
Current Conditions -  °F | °C
As of 8:52 PM on Friday 24 Oct 2014 (Local Time) from KALS Reporting Station
Clear Clear  
Wind Chill: 41°   Ceiling: Unl
Heat Index: 45°   Visibility: 10mi
Dew Point: 23°   Wind: 7mph
Humidity: 42%   Direction: 300°WNW
Pressure: 30.37"   Gusts: NA
Location:  37.1816°N, 106.262°W
Report Text: KALS 250252Z AUTO 30006KT 10SM CLR 07/M05 A3037 RMK AO2 SLP253 T00721050 53009
Loading
Personal Weather Stations






























Interactive Weather Map
Tropical Storm Tracking
New forecast layout! Learn more

10-Day Weather Forecast

Advertisements
Track Severe Weather on mobile